Página principal
METAR-TAF:

METAR-TAF

Aeroportos :

Remada, Tunísia

latitude: 32-19N, longitude: 010-24E, altura: 300 m

Observação actual do tempo

O boletim foi feito há 48 minutos, às 12:00 UTC
Vento 6 kt de es-sudeste, variando entre nordeste e sul
Temperatura 38°C
Humidade 23%
Pressão 1016 hPa
Visibilidade 10 km ou mais
sem nuvens abaixo de 1500 metros e sem cumulonimbus

METAR: DTTD 201200Z 11006KT 050V180 CAVOK 38/13 Q1016 RMK SIROCCO

Hora: 13:48 (12:48 UTC)


TAF: em falta

Observações e previsões do tempo de mais de 4000 aeroportos (mensagens METAR e TAF).

As estações disponíveis são os pontos amarelos e vermelhos sobre o mapa.

Mova o rato sobre o mapa para ver o nome da estação.

Depois clique no ponto para visualizar as observações e previsões meteorológicas.

Para alterar o mapa : clique nos botões verdes com uma cruz preta para aumentar o zoom; no botão verde com uma pitada de zoom; ou nas setas verdes para mapas adjacentes.


METAR-TAF: